createdAt,value
2022-11-30T00:02:26.874Z,5.50
2022-11-30T00:04:59.639Z,9.63
2022-11-30T00:07:33.089Z,6.30
2022-11-30T00:10:07.441Z,8.90
2022-11-30T00:12:41.831Z,10.55
2022-11-30T00:15:17.822Z,10.60
2022-11-30T00:17:51.346Z,10.28
2022-11-30T00:20:24.152Z,6.17
2022-11-30T00:22:59.126Z,13.78
2022-11-30T00:25:31.741Z,10.03
2022-11-30T00:28:04.499Z,7.62
2022-11-30T00:30:37.245Z,7.08
2022-11-30T00:33:09.851Z,8.90
2022-11-30T00:35:42.939Z,9.68
2022-11-30T00:38:15.644Z,13.75
2022-11-30T00:40:48.369Z,12.95
2022-11-30T00:43:21.082Z,8.48
2022-11-30T00:45:53.925Z,5.62
2022-11-30T00:48:26.611Z,8.23
2022-11-30T00:50:59.389Z,14.33
2022-11-30T00:53:32.191Z,7.95
2022-11-30T00:56:05.957Z,12.47
2022-11-30T00:58:38.978Z,5.95
2022-11-30T01:01:12.144Z,16.55
2022-11-30T01:03:44.857Z,12.75
2022-11-30T01:06:17.631Z,8.33
2022-11-30T01:08:50.664Z,6.53
2022-11-30T01:11:29.190Z,7.62
2022-11-30T01:14:02.648Z,8.23
2022-11-30T01:16:36.092Z,8.90
2022-11-30T01:19:08.915Z,13.73
2022-11-30T01:21:41.778Z,7.28
2022-11-30T01:24:14.634Z,5.95
2022-11-30T01:26:47.320Z,8.05
2022-11-30T01:29:20.358Z,8.23
2022-11-30T01:31:54.244Z,7.00
2022-11-30T01:34:26.880Z,8.65
2022-11-30T01:36:59.501Z,6.95
2022-11-30T01:39:32.191Z,11.53
2022-11-30T01:42:05.222Z,26.95
2022-11-30T01:44:59.428Z,8.45
2022-11-30T01:47:48.702Z,9.18
2022-11-30T01:50:29.113Z,12.05
2022-11-30T01:53:02.135Z,10.32
2022-11-30T01:55:43.570Z,11.60
2022-11-30T01:58:20.907Z,13.18
2022-11-30T02:00:53.577Z,6.80
2022-11-30T02:03:42.798Z,11.80
2022-11-30T02:06:15.822Z,9.63
2022-11-30T02:08:48.593Z,7.40
2022-11-30T02:11:21.432Z,5.42
2022-11-30T02:14:30.924Z,10.00
2022-11-30T02:17:35.980Z,8.98
2022-11-30T02:20:25.519Z,12.45
2022-11-30T02:23:19.799Z,8.90
2022-11-30T02:26:10.390Z,5.37
2022-11-30T02:29:07.540Z,9.90
2022-11-30T02:31:47.907Z,6.10
2022-11-30T02:34:22.778Z,9.90
2022-11-30T02:36:56.653Z,9.93
2022-11-30T02:39:29.590Z,8.23
2022-11-30T02:42:02.205Z,8.18
2022-11-30T02:44:35.343Z,9.13
2022-11-30T02:47:35.519Z,10.85
2022-11-30T02:50:26.638Z,10.80
2022-11-30T02:52:59.788Z,6.50
2022-11-30T02:55:32.533Z,9.73
2022-11-30T02:58:05.857Z,15.75
2022-11-30T03:00:38.846Z,11.57
2022-11-30T03:03:11.637Z,7.67
2022-11-30T03:05:44.221Z,13.10
2022-11-30T03:08:16.991Z,10.55
2022-11-30T03:10:49.695Z,8.33
2022-11-30T03:13:22.390Z,7.20
2022-11-30T03:15:55.174Z,10.00
2022-11-30T03:18:27.850Z,5.00
2022-11-30T03:21:00.475Z,9.53
2022-11-30T03:23:33.672Z,14.60
2022-11-30T03:26:08.302Z,8.30
2022-11-30T03:28:41.044Z,8.80
2022-11-30T03:31:15.032Z,8.08
2022-11-30T03:33:47.784Z,12.37
2022-11-30T03:36:20.666Z,12.90
2022-11-30T03:38:53.591Z,10.38
2022-11-30T03:41:26.247Z,8.23
2022-11-30T03:43:58.950Z,9.28
2022-11-30T03:46:31.843Z,9.53
2022-11-30T03:49:04.584Z,14.23
2022-11-30T03:51:37.704Z,18.30
2022-11-30T03:54:10.570Z,10.90
2022-11-30T03:56:43.250Z,9.30
2022-11-30T03:59:15.999Z,16.77
2022-11-30T04:01:49.650Z,17.40
2022-11-30T04:04:22.469Z,9.85
2022-11-30T04:06:55.176Z,16.97
2022-11-30T04:09:28.108Z,14.83
2022-11-30T04:12:02.459Z,22.02
2022-11-30T04:14:35.172Z,18.00
2022-11-30T04:17:07.799Z,10.75
2022-11-30T04:19:40.785Z,7.17
2022-11-30T04:22:13.416Z,24.47
2022-11-30T04:24:46.338Z,14.63
2022-11-30T04:27:19.281Z,20.90
2022-11-30T04:29:52.448Z,10.48
2022-11-30T04:32:25.445Z,16.47
2022-11-30T04:34:58.152Z,18.42
2022-11-30T04:37:31.445Z,14.23
2022-11-30T04:40:04.689Z,17.35
2022-11-30T04:42:37.528Z,16.93
2022-11-30T04:45:11.647Z,13.18
2022-11-30T04:47:45.283Z,12.15
2022-11-30T04:50:18.044Z,19.82
2022-11-30T04:52:51.279Z,11.60
2022-11-30T04:55:24.658Z,14.93
2022-11-30T04:57:57.569Z,14.10
2022-11-30T05:00:31.098Z,19.80
2022-11-30T05:03:04.343Z,26.90
2022-11-30T05:05:37.141Z,15.08
2022-11-30T05:08:11.069Z,14.33
2022-11-30T05:10:46.636Z,20.75
2022-11-30T05:13:18.311Z,9.23
2022-11-30T05:15:51.165Z,12.58
2022-11-30T05:18:24.023Z,10.68
2022-11-30T05:20:56.701Z,16.02
2022-11-30T05:23:29.700Z,11.80
2022-11-30T05:26:04.928Z,24.37
2022-11-30T05:28:38.512Z,17.37
2022-11-30T05:31:11.242Z,19.15
2022-11-30T05:33:44.083Z,16.23
2022-11-30T05:36:16.720Z,15.58
2022-11-30T05:38:49.997Z,12.03
2022-11-30T05:41:22.782Z,19.50
2022-11-30T05:43:56.594Z,20.05
2022-11-30T05:46:29.943Z,15.35
2022-11-30T05:49:02.577Z,13.75
2022-11-30T05:51:35.439Z,17.82
2022-11-30T05:54:08.140Z,24.80
2022-11-30T05:56:40.838Z,15.45
2022-11-30T05:59:13.675Z,17.30
2022-11-30T06:01:47.084Z,19.85
2022-11-30T06:04:20.307Z,23.50
2022-11-30T06:06:54.778Z,25.20
2022-11-30T06:09:27.791Z,15.53
2022-11-30T06:12:00.548Z,11.60
2022-11-30T06:14:33.536Z,24.67
2022-11-30T06:17:06.254Z,17.65
2022-11-30T06:19:39.127Z,14.63
2022-11-30T06:22:13.027Z,14.93
2022-11-30T06:24:45.998Z,18.90
2022-11-30T06:27:20.000Z,16.87
2022-11-30T06:29:53.022Z,18.10
2022-11-30T06:32:26.182Z,14.45
2022-11-30T06:34:59.068Z,19.30
2022-11-30T06:37:33.471Z,26.40
2022-11-30T06:40:08.394Z,16.37
2022-11-30T06:42:42.395Z,32.15
2022-11-30T06:45:15.219Z,28.60
2022-11-30T06:47:47.957Z,35.38
2022-11-30T06:50:20.615Z,28.12
2022-11-30T06:52:53.411Z,24.72
2022-11-30T06:55:26.592Z,33.45
2022-11-30T06:58:10.342Z,22.93
2022-11-30T07:00:43.450Z,24.00
2022-11-30T07:03:16.196Z,21.25
2022-11-30T07:05:49.291Z,30.30
2022-11-30T07:08:22.358Z,25.10
2022-11-30T07:10:54.965Z,17.30
2022-11-30T07:13:30.408Z,14.18
2022-11-30T07:16:07.481Z,27.00
2022-11-30T07:18:40.843Z,23.52
2022-11-30T07:21:13.558Z,26.23
2022-11-30T07:24:04.258Z,18.98
2022-11-30T07:26:37.302Z,11.68
2022-11-30T07:29:10.150Z,28.05
2022-11-30T07:31:43.730Z,20.02
2022-11-30T07:34:16.412Z,15.00
2022-11-30T07:36:49.604Z,20.72
2022-11-30T07:39:23.783Z,23.32
2022-11-30T07:41:56.484Z,19.90
2022-11-30T07:44:30.981Z,16.05
2022-11-30T07:47:03.608Z,20.52
2022-11-30T07:49:36.572Z,22.25
2022-11-30T07:52:09.798Z,25.10
2022-11-30T07:54:42.673Z,18.73
2022-11-30T07:57:15.469Z,26.87
2022-11-30T07:59:48.806Z,15.48
2022-11-30T08:02:21.752Z,25.80
2022-11-30T08:04:56.728Z,15.43
2022-11-30T08:07:29.483Z,21.87
2022-11-30T08:10:02.125Z,23.12
2022-11-30T08:12:35.037Z,20.50
2022-11-30T08:15:19.948Z,13.58
2022-11-30T08:17:43.977Z,35.95
2022-11-30T08:20:16.978Z,14.50
2022-11-30T08:22:52.158Z,17.20
2022-11-30T08:27:56.599Z,18.87
2022-11-30T08:30:32.708Z,20.03
2022-11-30T08:33:05.097Z,20.08
2022-11-30T08:35:38.015Z,23.73
2022-11-30T08:38:10.734Z,32.53
2022-11-30T08:40:43.605Z,20.32
2022-11-30T08:43:16.828Z,26.50
2022-11-30T08:45:54.265Z,19.23
2022-11-30T08:48:24.257Z,17.98
2022-11-30T08:50:58.690Z,17.65
2022-11-30T08:53:31.488Z,17.35
2022-11-30T08:56:08.950Z,17.25
2022-11-30T08:58:42.281Z,13.13
2022-11-30T09:01:19.206Z,16.70
2022-11-30T09:03:58.777Z,19.92
2022-11-30T09:06:32.320Z,19.00
2022-11-30T09:09:05.143Z,14.83
2022-11-30T09:11:38.441Z,15.50
2022-11-30T09:14:11.923Z,21.30
2022-11-30T09:16:45.257Z,16.70
2022-11-30T09:19:18.044Z,11.20
2022-11-30T09:21:52.191Z,11.57
2022-11-30T09:24:25.338Z,19.60
2022-11-30T09:26:58.794Z,22.48
2022-11-30T09:29:31.746Z,27.02
2022-11-30T09:32:04.659Z,16.90
2022-11-30T09:34:37.488Z,14.87
2022-11-30T09:37:10.114Z,15.63
2022-11-30T09:42:35.978Z,13.05
2022-11-30T09:45:21.985Z,12.95
2022-11-30T09:48:18.341Z,10.13
2022-11-30T09:50:51.725Z,16.50
2022-11-30T09:53:41.656Z,13.88
2022-11-30T09:56:21.717Z,8.08
2022-11-30T09:59:01.936Z,21.23
2022-11-30T10:01:38.506Z,15.48
2022-11-30T10:04:19.717Z,17.87
2022-11-30T10:07:23.042Z,13.50
2022-11-30T10:10:32.252Z,14.15
2022-11-30T10:12:59.629Z,9.35
2022-11-30T10:15:52.148Z,16.60
2022-11-30T10:18:41.880Z,15.05
2022-11-30T10:21:31.421Z,13.05
2022-11-30T10:24:25.626Z,8.90
2022-11-30T10:27:00.232Z,17.50
2022-11-30T10:29:37.058Z,11.05
2022-11-30T10:32:25.529Z,20.20
2022-11-30T10:35:02.900Z,17.25
2022-11-30T10:37:40.469Z,11.93
2022-11-30T10:40:20.987Z,17.52
2022-11-30T10:43:22.057Z,20.95
2022-11-30T10:45:55.094Z,19.67
2022-11-30T10:48:43.700Z,10.63
2022-11-30T10:51:16.875Z,12.23
2022-11-30T10:53:49.722Z,21.05
2022-11-30T10:56:22.542Z,9.63
2022-11-30T10:59:05.445Z,9.40
2022-11-30T11:01:41.844Z,12.10
2022-11-30T11:04:19.466Z,14.60
2022-11-30T11:07:11.183Z,17.67
2022-11-30T11:09:51.557Z,14.78
2022-11-30T11:12:31.206Z,12.28
2022-11-30T11:15:26.784Z,9.48
2022-11-30T11:18:26.312Z,6.60
2022-11-30T11:21:15.367Z,13.50
2022-11-30T11:23:51.405Z,9.10
2022-11-30T11:26:27.619Z,14.50
2022-11-30T11:29:01.418Z,18.85
2022-11-30T11:31:46.717Z,15.70
2022-11-30T11:34:30.844Z,12.20
2022-11-30T11:37:11.393Z,16.67
2022-11-30T11:39:44.404Z,11.75
2022-11-30T11:42:22.134Z,16.80
2022-11-30T11:44:59.038Z,13.43
2022-11-30T11:47:42.675Z,12.65
2022-11-30T11:51:04.853Z,12.73
2022-11-30T11:53:24.685Z,13.10
2022-11-30T11:56:17.540Z,10.00
2022-11-30T11:59:02.812Z,10.72
2022-11-30T12:01:51.977Z,11.78
2022-11-30T12:04:47.732Z,7.75
2022-11-30T12:07:37.194Z,16.45
2022-11-30T12:10:50.013Z,10.28
2022-11-30T12:12:54.785Z,10.45
2022-11-30T12:15:39.792Z,12.93
2022-11-30T12:18:28.313Z,14.20
2022-11-30T12:21:14.921Z,14.18
2022-11-30T12:24:01.176Z,16.05
2022-11-30T12:26:46.990Z,12.73
2022-11-30T12:29:24.577Z,12.70
2022-11-30T12:32:13.864Z,17.23
2022-11-30T12:35:00.128Z,13.03
2022-11-30T12:37:47.820Z,12.88
2022-11-30T12:40:37.699Z,14.80
2022-11-30T12:43:31.003Z,7.47
2022-11-30T12:46:26.718Z,14.15
2022-11-30T12:49:25.118Z,12.40
2022-11-30T12:52:25.365Z,15.25
2022-11-30T12:55:35.824Z,5.87
2022-11-30T12:58:34.267Z,9.13
2022-11-30T13:01:21.729Z,14.70
2022-11-30T13:03:59.060Z,14.40
2022-11-30T13:06:39.761Z,15.45
2022-11-30T13:09:32.541Z,11.88
2022-11-30T13:12:21.658Z,10.03
2022-11-30T13:15:00.943Z,9.50
2022-11-30T13:17:34.573Z,10.08
2022-11-30T13:20:14.766Z,17.57
2022-11-30T13:23:04.531Z,15.78
2022-11-30T13:26:07.991Z,16.42
2022-11-30T13:28:54.016Z,17.35
2022-11-30T13:31:43.736Z,15.00
2022-11-30T13:34:33.242Z,23.38
2022-11-30T13:37:27.365Z,10.45
2022-11-30T13:40:01.181Z,13.15
2022-11-30T13:42:51.264Z,8.33
2022-11-30T13:45:33.279Z,17.37
2022-11-30T13:48:28.368Z,18.90
2022-11-30T13:51:01.192Z,21.87
2022-11-30T13:53:37.458Z,23.25
2022-11-30T13:56:35.398Z,19.98
2022-11-30T13:59:33.274Z,13.58
2022-11-30T14:02:42.218Z,15.50
2022-11-30T14:05:23.555Z,12.58
2022-11-30T14:08:07.071Z,8.85
2022-11-30T14:10:46.068Z,11.50
2022-11-30T14:13:28.711Z,10.63
2022-11-30T14:16:03.357Z,15.72
2022-11-30T14:18:44.381Z,13.83
2022-11-30T14:21:35.390Z,11.25
2022-11-30T14:24:15.698Z,7.87
2022-11-30T14:26:52.930Z,12.58
2022-11-30T14:29:36.322Z,12.03
2022-11-30T14:32:22.615Z,13.30
2022-11-30T14:35:00.396Z,10.58
2022-11-30T14:37:37.516Z,10.03
2022-11-30T14:40:19.034Z,9.78
2022-11-30T14:42:56.407Z,13.75
2022-11-30T14:45:32.609Z,17.77
2022-11-30T14:48:14.107Z,10.48
2022-11-30T14:50:58.816Z,17.17
2022-11-30T14:53:53.072Z,9.18
2022-11-30T14:56:38.591Z,13.15
2022-11-30T14:59:50.740Z,18.37
2022-11-30T15:02:38.406Z,9.20
2022-11-30T15:05:17.726Z,15.18
2022-11-30T15:07:51.144Z,25.37
2022-11-30T15:10:32.124Z,25.75
2022-11-30T15:13:06.315Z,9.08
2022-11-30T15:15:41.896Z,11.08
2022-11-30T15:18:19.733Z,9.45
2022-11-30T15:21:02.387Z,12.47
2022-11-30T15:23:36.372Z,14.38
2022-11-30T15:26:19.568Z,11.53
2022-11-30T15:29:12.876Z,14.10
2022-11-30T15:31:49.247Z,12.43
2022-11-30T15:34:43.000Z,10.28
2022-11-30T15:37:16.874Z,13.20
2022-11-30T15:39:58.171Z,11.85
2022-11-30T15:42:38.432Z,8.80
2022-11-30T15:45:24.429Z,9.13
2022-11-30T15:47:59.306Z,13.00
2022-11-30T15:50:37.439Z,11.83
2022-11-30T15:53:32.209Z,14.45
2022-11-30T15:58:49.253Z,13.90
2022-11-30T16:01:25.268Z,12.00
2022-11-30T16:04:08.564Z,14.70
2022-11-30T16:06:49.973Z,17.55
2022-11-30T16:09:30.664Z,10.13
2022-11-30T16:12:04.711Z,10.58
2022-11-30T16:14:37.704Z,7.75
2022-11-30T16:17:12.563Z,8.03
2022-11-30T16:19:45.754Z,6.72
2022-11-30T16:22:18.822Z,7.45
2022-11-30T16:24:51.553Z,13.48
2022-11-30T16:27:24.479Z,16.95
2022-11-30T16:29:57.386Z,11.68
2022-11-30T16:32:31.061Z,13.68
2022-11-30T16:35:04.342Z,14.00
2022-11-30T16:37:37.046Z,9.03
2022-11-30T16:40:10.519Z,12.53
2022-11-30T16:42:43.740Z,11.30
2022-11-30T16:45:21.361Z,9.63
2022-11-30T16:47:54.496Z,12.70
2022-11-30T16:50:28.145Z,6.53
2022-11-30T16:53:01.763Z,7.40
2022-11-30T16:55:37.994Z,7.28
2022-11-30T16:58:11.128Z,6.47
2022-11-30T17:00:44.004Z,10.30
2022-11-30T17:03:29.752Z,8.95
2022-11-30T17:06:02.633Z,9.80
2022-11-30T17:08:37.552Z,12.65
2022-11-30T17:11:15.028Z,12.90
2022-11-30T17:13:48.625Z,12.58
2022-11-30T17:16:21.768Z,10.35
2022-11-30T17:18:54.516Z,9.33
2022-11-30T17:21:34.108Z,13.20
2022-11-30T17:24:08.150Z,8.03
2022-11-30T17:26:41.506Z,7.45
2022-11-30T17:29:14.400Z,9.35
2022-11-30T17:31:47.031Z,6.83
2022-11-30T17:34:19.702Z,9.30
2022-11-30T17:36:54.017Z,8.15
2022-11-30T17:41:58.242Z,5.03
2022-11-30T17:44:30.948Z,8.95
2022-11-30T17:47:03.976Z,6.72
2022-11-30T17:49:36.608Z,7.20
2022-11-30T17:52:10.156Z,13.37
2022-11-30T17:54:43.130Z,5.45
2022-11-30T17:57:16.101Z,6.45
2022-11-30T17:59:49.767Z,6.58
2022-11-30T18:02:22.415Z,8.03
2022-11-30T18:04:56.056Z,7.65
2022-11-30T18:07:28.881Z,4.67
2022-11-30T18:10:02.359Z,10.63
2022-11-30T18:12:35.212Z,6.15
2022-11-30T18:15:09.018Z,7.90
2022-11-30T18:17:42.119Z,5.00
2022-11-30T18:20:16.626Z,4.78
2022-11-30T18:22:49.529Z,4.92
2022-11-30T18:25:22.606Z,9.70
2022-11-30T18:27:55.496Z,6.72
2022-11-30T18:30:28.574Z,9.30
2022-11-30T18:33:02.042Z,8.93
2022-11-30T18:35:35.997Z,13.60
2022-11-30T18:38:08.795Z,18.73
2022-11-30T18:40:41.562Z,8.43
2022-11-30T18:43:14.240Z,9.85
2022-11-30T18:45:47.050Z,11.30
2022-11-30T18:48:19.848Z,16.87
2022-11-30T18:50:53.303Z,15.32
2022-11-30T18:53:26.205Z,13.65
2022-11-30T18:56:08.705Z,16.85
2022-11-30T18:58:45.746Z,12.80
2022-11-30T19:01:20.800Z,15.00
2022-11-30T19:03:55.921Z,8.65
2022-11-30T19:06:30.088Z,10.38
2022-11-30T19:09:09.477Z,12.33
2022-11-30T19:11:44.389Z,13.98
2022-11-30T19:14:18.740Z,13.05
2022-11-30T19:16:52.082Z,21.25
2022-11-30T19:19:25.110Z,17.05
2022-11-30T19:21:58.509Z,10.78
2022-11-30T19:24:31.230Z,10.53
2022-11-30T19:27:04.472Z,9.15
2022-11-30T19:29:37.269Z,10.48
2022-11-30T19:32:10.460Z,11.37
2022-11-30T19:34:43.222Z,11.95
2022-11-30T19:37:16.234Z,12.40
2022-11-30T19:39:48.821Z,9.55
2022-11-30T19:42:21.517Z,11.90
2022-11-30T19:44:54.971Z,8.90
2022-11-30T19:47:27.702Z,7.42
2022-11-30T19:50:01.178Z,6.65
2022-11-30T19:52:34.236Z,5.95
2022-11-30T19:55:07.955Z,3.95
2022-11-30T19:57:41.328Z,6.17
2022-11-30T20:00:16.134Z,8.50
2022-11-30T20:02:50.456Z,18.15
2022-11-30T20:05:23.169Z,10.45
2022-11-30T20:07:56.268Z,10.82
2022-11-30T20:10:32.041Z,11.05
2022-11-30T20:13:03.329Z,12.43
2022-11-30T20:15:37.726Z,24.82
2022-11-30T20:18:10.738Z,12.73
2022-11-30T20:20:43.543Z,9.48
2022-11-30T20:23:16.366Z,12.25
2022-11-30T20:25:49.079Z,12.88
2022-11-30T20:28:22.105Z,14.20
2022-11-30T20:30:54.820Z,8.65
2022-11-30T20:33:27.950Z,11.03
2022-11-30T20:36:04.833Z,5.35
2022-11-30T20:38:38.756Z,7.20
2022-11-30T20:43:46.255Z,7.45
2022-11-30T20:46:36.947Z,9.30
2022-11-30T20:49:19.194Z,7.65
2022-11-30T20:51:53.139Z,8.75
2022-11-30T20:54:26.485Z,5.75
2022-11-30T20:57:00.647Z,15.20
2022-11-30T20:59:33.841Z,15.58
2022-11-30T21:02:06.595Z,10.63
2022-11-30T21:04:39.357Z,12.47
2022-11-30T21:07:11.953Z,12.82
2022-11-30T21:09:44.655Z,8.70
2022-11-30T21:12:17.387Z,6.20
2022-11-30T21:14:50.504Z,6.95
2022-11-30T21:17:23.319Z,6.65
2022-11-30T21:19:55.930Z,6.90
2022-11-30T21:22:30.041Z,6.55
2022-11-30T21:25:02.988Z,19.07
2022-11-30T21:27:35.802Z,15.05
2022-11-30T21:30:10.018Z,14.63
2022-11-30T21:32:43.057Z,7.47
2022-11-30T21:35:15.796Z,7.15
2022-11-30T21:37:48.348Z,11.12
2022-11-30T21:40:21.590Z,7.33
2022-11-30T21:42:54.136Z,6.62
2022-11-30T21:45:26.739Z,9.70
2022-11-30T21:47:59.736Z,11.80
2022-11-30T21:50:33.293Z,7.80
2022-11-30T21:53:05.914Z,16.05
2022-11-30T21:55:39.577Z,9.70
2022-11-30T21:58:12.256Z,7.37
2022-11-30T22:00:45.147Z,6.90
2022-11-30T22:03:19.650Z,7.17
2022-11-30T22:06:05.682Z,7.67
2022-11-30T22:08:39.095Z,9.68
2022-11-30T22:11:19.308Z,8.65
2022-11-30T22:13:53.940Z,5.12
2022-11-30T22:16:35.276Z,5.47
2022-11-30T22:19:03.027Z,6.87
2022-11-30T22:21:36.698Z,23.10
2022-11-30T22:24:13.041Z,6.47
2022-11-30T22:26:49.454Z,6.50
2022-11-30T22:29:24.660Z,6.08
2022-11-30T22:31:57.275Z,6.72
2022-11-30T22:34:31.129Z,6.30
2022-11-30T22:37:03.715Z,4.25
2022-11-30T22:39:36.256Z,5.40
2022-11-30T22:42:09.135Z,5.47
2022-11-30T22:44:41.699Z,5.75
2022-11-30T22:47:15.251Z,5.92
2022-11-30T22:49:48.289Z,8.70
2022-11-30T22:52:36.483Z,5.57
2022-11-30T22:54:56.001Z,3.98
2022-11-30T22:57:28.843Z,9.48
2022-11-30T23:00:01.870Z,6.72
2022-11-30T23:02:34.723Z,3.60
2022-11-30T23:05:07.771Z,2.95
2022-11-30T23:07:40.843Z,2.98
2022-11-30T23:10:15.149Z,9.75
2022-11-30T23:13:02.973Z,7.72
2022-11-30T23:15:22.461Z,5.83
2022-11-30T23:17:55.474Z,6.73
2022-11-30T23:20:28.092Z,5.12
2022-11-30T23:23:00.741Z,5.72
2022-11-30T23:25:33.654Z,4.95
2022-11-30T23:28:06.694Z,7.40
2022-11-30T23:30:39.864Z,5.27
2022-11-30T23:33:12.613Z,4.85
2022-11-30T23:35:45.971Z,6.75
2022-11-30T23:38:19.337Z,5.50
2022-11-30T23:40:51.992Z,5.67
2022-11-30T23:43:24.760Z,5.70
2022-11-30T23:45:57.466Z,4.58
2022-11-30T23:48:30.594Z,6.30
2022-11-30T23:51:04.454Z,3.97
2022-11-30T23:53:37.186Z,3.55
2022-11-30T23:56:14.688Z,7.50
2022-11-30T23:58:47.695Z,3.65
